createdAt,value
2023-06-17T00:01:20.838Z,17.68
2023-06-17T00:03:48.388Z,17.70
2023-06-17T00:06:15.852Z,18.11
2023-06-17T00:08:43.304Z,18.32
2023-06-17T00:11:11.963Z,18.09
2023-06-17T00:13:39.859Z,18.11
2023-06-17T00:16:07.390Z,18.19
2023-06-17T00:18:36.231Z,18.35
2023-06-17T00:21:03.934Z,18.34
2023-06-17T00:23:32.071Z,18.25
2023-06-17T00:25:59.605Z,18.26
2023-06-17T00:28:27.059Z,18.43
2023-06-17T00:30:54.556Z,18.43
2023-06-17T00:33:21.990Z,18.19
2023-06-17T00:35:51.862Z,18.24
2023-06-17T00:38:20.409Z,18.14
2023-06-17T00:40:47.849Z,18.25
2023-06-17T00:43:15.510Z,18.14
2023-06-17T00:45:43.032Z,17.81
2023-06-17T00:48:12.010Z,18.00
2023-06-17T00:50:39.976Z,17.93
2023-06-17T00:53:09.137Z,17.89
2023-06-17T00:55:37.040Z,17.68
2023-06-17T00:58:05.068Z,17.96
2023-06-17T01:00:32.513Z,18.02
2023-06-17T01:03:00.227Z,18.09
2023-06-17T01:05:28.418Z,18.24
2023-06-17T01:08:11.264Z,18.24
2023-06-17T01:10:46.706Z,18.07
2023-06-17T01:13:17.148Z,18.03
2023-06-17T01:15:45.643Z,18.17
2023-06-17T01:18:19.001Z,18.30
2023-06-17T01:20:48.243Z,18.27
2023-06-17T01:23:16.946Z,18.13
2023-06-17T01:25:47.075Z,18.13
2023-06-17T01:28:17.752Z,18.25
2023-06-17T01:30:46.152Z,18.30
2023-06-17T01:33:14.763Z,18.38
2023-06-17T01:35:47.991Z,18.24
2023-06-17T01:38:21.076Z,18.19
2023-06-17T01:40:59.728Z,18.08
2023-06-17T01:43:28.141Z,17.79
2023-06-17T01:45:57.554Z,17.92
2023-06-17T01:48:25.475Z,18.14
2023-06-17T01:50:53.195Z,18.20
2023-06-17T01:53:20.789Z,18.35
2023-06-17T01:55:48.279Z,18.37
2023-06-17T01:58:17.144Z,18.41
2023-06-17T02:00:44.620Z,18.25
2023-06-17T02:03:12.199Z,18.19
2023-06-17T02:05:39.686Z,18.21
2023-06-17T02:08:07.336Z,18.11
2023-06-17T02:10:34.912Z,18.27
2023-06-17T02:13:04.474Z,17.97
2023-06-17T02:15:33.249Z,17.84
2023-06-17T02:18:01.696Z,17.99
2023-06-17T02:20:29.306Z,17.81
2023-06-17T02:22:56.763Z,17.92
2023-06-17T02:25:24.254Z,17.95
2023-06-17T02:27:52.631Z,17.72
2023-06-17T02:30:20.502Z,17.97
2023-06-17T02:32:49.560Z,17.88
2023-06-17T02:35:17.268Z,18.16
2023-06-17T02:37:45.558Z,17.89
2023-06-17T02:40:13.135Z,17.39
2023-06-17T02:42:40.993Z,17.31
2023-06-17T02:45:12.267Z,17.56
2023-06-17T02:47:39.864Z,17.55
2023-06-17T02:50:09.597Z,17.85
2023-06-17T02:52:38.390Z,17.45
2023-06-17T02:55:06.968Z,17.51
2023-06-17T02:57:34.502Z,17.62
2023-06-17T03:00:02.025Z,17.55
2023-06-17T03:02:29.554Z,17.98
2023-06-17T03:04:57.882Z,17.94
2023-06-17T03:07:26.636Z,18.08
2023-06-17T03:09:54.088Z,18.09
2023-06-17T03:12:21.513Z,17.97
2023-06-17T03:14:49.056Z,18.10
2023-06-17T03:17:16.533Z,18.02
2023-06-17T03:19:44.882Z,18.15
2023-06-17T03:22:12.462Z,18.28
2023-06-17T03:24:41.420Z,17.66
2023-06-17T03:27:08.950Z,18.06
2023-06-17T03:29:36.618Z,17.97
2023-06-17T03:32:04.550Z,18.05
2023-06-17T03:34:32.623Z,18.15
2023-06-17T03:37:00.085Z,17.88
2023-06-17T03:39:27.565Z,17.41
2023-06-17T03:41:56.288Z,17.74
2023-06-17T03:44:23.703Z,17.91
2023-06-17T03:46:51.158Z,17.59
2023-06-17T03:49:18.607Z,17.20
2023-06-17T03:51:46.071Z,17.70
2023-06-17T03:54:13.478Z,17.82
2023-06-17T03:56:41.404Z,18.10
2023-06-17T03:59:12.149Z,17.93
2023-06-17T04:01:41.372Z,17.95
2023-06-17T04:04:08.960Z,17.85
2023-06-17T04:06:37.138Z,17.69
2023-06-17T04:09:05.019Z,17.86
2023-06-17T04:11:34.032Z,17.98
2023-06-17T04:14:01.632Z,17.73
2023-06-17T04:16:31.776Z,17.91
2023-06-17T04:18:59.572Z,17.65
2023-06-17T04:21:27.690Z,17.70
2023-06-17T04:23:55.177Z,17.96
2023-06-17T04:26:24.013Z,17.74
2023-06-17T04:28:51.479Z,17.48
2023-06-17T04:31:18.920Z,17.70
2023-06-17T04:33:47.783Z,17.90
2023-06-17T04:36:15.561Z,17.98
2023-06-17T04:38:43.066Z,17.57
2023-06-17T04:41:10.581Z,17.42
2023-06-17T04:43:38.847Z,17.95
2023-06-17T04:46:07.119Z,18.37
2023-06-17T04:48:34.859Z,18.27
2023-06-17T04:51:03.692Z,17.85
2023-06-17T04:53:31.136Z,18.16
2023-06-17T04:55:58.735Z,18.01
2023-06-17T04:58:26.269Z,18.09
2023-06-17T05:00:53.787Z,18.21
2023-06-17T05:03:21.284Z,18.02
2023-06-17T05:05:48.928Z,18.47
2023-06-17T05:08:17.699Z,17.83
2023-06-17T05:10:45.171Z,18.51
2023-06-17T05:13:12.607Z,18.52
2023-06-17T05:15:40.040Z,18.80
2023-06-17T05:18:07.592Z,18.88
2023-06-17T05:20:35.138Z,18.70
2023-06-17T05:23:02.660Z,18.76
2023-06-17T05:25:31.397Z,18.65
2023-06-17T05:27:58.850Z,18.70
2023-06-17T05:30:26.336Z,18.83
2023-06-17T05:32:53.859Z,18.87
2023-06-17T05:35:21.414Z,18.93
2023-06-17T05:37:48.878Z,19.10
2023-06-17T05:40:16.418Z,19.42
2023-06-17T05:42:45.166Z,19.36
2023-06-17T05:45:12.799Z,19.41
2023-06-17T05:47:40.312Z,19.32
2023-06-17T05:50:08.154Z,19.00
2023-06-17T05:52:35.585Z,18.49
2023-06-17T05:55:03.012Z,18.92
2023-06-17T05:57:30.640Z,19.15
2023-06-17T05:59:59.412Z,18.90
2023-06-17T06:02:26.889Z,19.15
2023-06-17T06:04:54.357Z,19.31
2023-06-17T06:07:21.785Z,19.36
2023-06-17T06:09:49.451Z,17.75
2023-06-17T06:12:16.877Z,17.67
2023-06-17T06:14:44.949Z,18.43
2023-06-17T06:17:13.756Z,17.95
2023-06-17T06:19:41.181Z,18.46
2023-06-17T06:22:08.702Z,18.44
2023-06-17T06:24:36.169Z,18.81
2023-06-17T06:27:03.676Z,18.54
2023-06-17T06:29:31.169Z,18.95
2023-06-17T06:31:58.587Z,19.16
2023-06-17T06:34:27.312Z,19.66
2023-06-17T06:36:56.342Z,19.78
2023-06-17T06:39:23.850Z,19.45
2023-06-17T06:41:51.305Z,20.14
2023-06-17T06:44:19.228Z,20.27
2023-06-17T06:46:47.758Z,20.30
2023-06-17T06:49:15.268Z,20.04
2023-06-17T06:51:43.998Z,20.14
2023-06-17T06:54:11.467Z,20.01
2023-06-17T06:56:38.890Z,19.96
2023-06-17T06:59:06.413Z,19.81
2023-06-17T07:01:33.896Z,19.24
2023-06-17T07:04:01.479Z,19.49
2023-06-17T07:06:28.928Z,19.24
2023-06-17T07:08:57.673Z,19.47
2023-06-17T07:11:25.096Z,18.98
2023-06-17T07:13:52.557Z,19.67
2023-06-17T07:16:20.188Z,19.74
2023-06-17T07:18:47.642Z,19.95
2023-06-17T07:21:15.065Z,20.45
2023-06-17T07:23:42.516Z,19.61
2023-06-17T07:26:11.263Z,19.66
2023-06-17T07:28:38.706Z,19.66
2023-06-17T07:31:06.586Z,19.25
2023-06-17T07:33:34.163Z,19.53
2023-06-17T07:36:01.606Z,19.53
2023-06-17T07:38:29.068Z,19.12
2023-06-17T07:40:56.535Z,19.46
2023-06-17T07:43:25.362Z,19.49
2023-06-17T07:45:52.862Z,20.39
2023-06-17T07:48:20.478Z,20.31
2023-06-17T07:50:47.891Z,20.34
2023-06-17T07:53:16.357Z,20.80
2023-06-17T07:55:43.937Z,20.48
2023-06-17T07:58:11.692Z,20.04
2023-06-17T08:00:40.445Z,19.21
2023-06-17T08:03:09.144Z,19.96
2023-06-17T08:05:38.021Z,20.24
2023-06-17T08:08:05.822Z,20.19
2023-06-17T08:10:33.717Z,20.34
2023-06-17T08:13:01.238Z,20.24
2023-06-17T08:15:29.388Z,19.77
2023-06-17T08:17:58.311Z,20.68
2023-06-17T08:20:25.996Z,20.60
2023-06-17T08:22:53.523Z,20.41
2023-06-17T08:25:21.765Z,20.59
2023-06-17T08:27:49.486Z,20.05
2023-06-17T08:30:17.069Z,19.40
2023-06-17T08:32:44.740Z,19.52
2023-06-17T08:35:15.453Z,19.51
2023-06-17T08:37:42.969Z,20.38
2023-06-17T08:40:11.157Z,19.67
2023-06-17T08:42:40.340Z,20.00
2023-06-17T08:45:08.887Z,20.04
2023-06-17T08:47:36.916Z,20.30
2023-06-17T08:50:05.211Z,20.18
2023-06-17T08:52:35.778Z,20.87
2023-06-17T08:55:04.044Z,20.23
2023-06-17T08:57:32.862Z,20.55
2023-06-17T09:00:00.482Z,20.98
2023-06-17T09:02:29.027Z,20.96
2023-06-17T09:04:56.756Z,20.15
2023-06-17T09:07:26.755Z,21.18
2023-06-17T09:09:56.797Z,20.26
2023-06-17T09:12:26.437Z,19.87
2023-06-17T09:14:55.688Z,19.81
2023-06-17T09:17:33.584Z,19.70
2023-06-17T09:20:11.278Z,20.52
2023-06-17T09:22:41.652Z,21.50
2023-06-17T09:25:15.503Z,21.65
2023-06-17T09:27:58.411Z,21.68
2023-06-17T09:30:30.355Z,21.20
2023-06-17T09:32:57.863Z,21.39
2023-06-17T09:35:25.478Z,21.43
2023-06-17T09:38:03.124Z,21.54
2023-06-17T09:40:35.121Z,20.57
2023-06-17T09:45:33.842Z,20.30
2023-06-17T09:48:01.284Z,21.05
2023-06-17T09:50:28.719Z,20.99
2023-06-17T09:52:57.043Z,20.71
2023-06-17T09:55:24.829Z,20.61
2023-06-17T09:57:54.805Z,20.59
2023-06-17T10:00:26.563Z,20.93
2023-06-17T10:02:55.125Z,20.83
2023-06-17T10:05:24.922Z,21.28
2023-06-17T10:07:54.829Z,21.98
2023-06-17T10:10:24.545Z,20.85
2023-06-17T10:12:56.882Z,21.40
2023-06-17T10:15:26.235Z,21.05
2023-06-17T10:17:55.899Z,21.87
2023-06-17T10:20:26.051Z,20.85
2023-06-17T10:22:56.058Z,21.20
2023-06-17T10:25:25.363Z,21.40
2023-06-17T10:27:54.617Z,21.40
2023-06-17T10:30:24.914Z,20.61
2023-06-17T10:33:00.268Z,21.63
2023-06-17T10:35:38.851Z,21.50
2023-06-17T10:38:07.628Z,21.12
2023-06-17T10:40:37.285Z,21.98
2023-06-17T10:43:22.154Z,22.92
2023-06-17T10:45:52.194Z,22.00
2023-06-17T10:48:23.341Z,22.21
2023-06-17T10:50:56.303Z,22.41
2023-06-17T10:53:29.283Z,22.23
2023-06-17T10:55:58.344Z,22.65
2023-06-17T10:58:32.810Z,21.99
2023-06-17T11:01:05.296Z,21.87
2023-06-17T11:03:33.139Z,22.23
2023-06-17T11:06:02.152Z,23.26
2023-06-17T11:08:31.292Z,23.65
2023-06-17T11:11:12.904Z,22.98
2023-06-17T11:13:43.062Z,22.77
2023-06-17T11:16:11.579Z,21.99
2023-06-17T11:18:40.076Z,21.08
2023-06-17T11:21:07.977Z,20.54
2023-06-17T11:23:36.855Z,20.59
2023-06-17T11:26:06.114Z,20.25
2023-06-17T11:28:33.995Z,19.71
2023-06-17T11:31:03.862Z,19.71
2023-06-17T11:33:32.117Z,20.16
2023-06-17T11:35:59.650Z,19.47
2023-06-17T11:38:28.301Z,19.75
2023-06-17T11:40:56.966Z,19.48
2023-06-17T11:43:27.321Z,19.99
2023-06-17T11:45:58.698Z,20.52
2023-06-17T11:48:31.381Z,20.39
2023-06-17T11:50:58.967Z,20.04
2023-06-17T11:53:30.683Z,20.01
2023-06-17T11:56:03.606Z,19.59
2023-06-17T11:58:31.291Z,20.12
2023-06-17T12:01:02.456Z,20.79
2023-06-17T12:03:31.290Z,19.55
2023-06-17T12:05:59.040Z,20.48
2023-06-17T12:08:32.363Z,19.56
2023-06-17T12:11:00.016Z,20.01
2023-06-17T12:13:38.608Z,19.62
2023-06-17T12:16:10.558Z,20.33
2023-06-17T12:18:39.377Z,20.48
2023-06-17T12:21:11.932Z,19.65
2023-06-17T12:23:39.416Z,20.57
2023-06-17T12:26:07.005Z,20.93
2023-06-17T12:28:34.500Z,21.01
2023-06-17T12:31:03.233Z,20.96
2023-06-17T12:33:31.010Z,21.00
2023-06-17T12:36:00.634Z,20.97
2023-06-17T12:38:30.486Z,19.97
2023-06-17T12:40:58.257Z,19.91
2023-06-17T12:43:25.728Z,19.67
2023-06-17T12:45:53.217Z,20.57
2023-06-17T12:48:20.677Z,19.86
2023-06-17T12:50:48.289Z,19.68
2023-06-17T12:53:17.137Z,20.10
2023-06-17T12:55:44.717Z,19.77
2023-06-17T12:58:13.010Z,20.35
2023-06-17T13:00:41.603Z,20.63
2023-06-17T13:03:09.558Z,20.95
2023-06-17T13:05:37.038Z,20.93
2023-06-17T13:08:04.677Z,21.05
2023-06-17T13:10:34.293Z,21.05
2023-06-17T13:13:01.818Z,20.91
2023-06-17T13:15:30.766Z,20.75
2023-06-17T13:17:58.429Z,20.32
2023-06-17T13:20:26.751Z,21.02
2023-06-17T13:22:54.251Z,20.40
2023-06-17T13:25:21.683Z,20.45
2023-06-17T13:27:50.486Z,21.02
2023-06-17T13:30:18.386Z,21.01
2023-06-17T13:32:46.091Z,20.75
2023-06-17T13:35:13.597Z,20.22
2023-06-17T13:37:41.006Z,20.58
2023-06-17T13:40:09.588Z,20.97
2023-06-17T13:42:37.025Z,21.27
2023-06-17T13:45:07.078Z,20.19
2023-06-17T13:47:34.643Z,20.95
2023-06-17T13:50:02.623Z,20.79
2023-06-17T13:52:30.121Z,20.17
2023-06-17T13:54:57.604Z,20.15
2023-06-17T13:57:25.060Z,20.64
2023-06-17T13:59:52.506Z,20.25
2023-06-17T14:02:21.366Z,20.18
2023-06-17T14:04:49.490Z,20.23
2023-06-17T14:07:16.934Z,20.20
2023-06-17T14:09:44.509Z,20.53
2023-06-17T14:12:12.124Z,19.77
2023-06-17T14:14:39.731Z,20.04
2023-06-17T14:17:07.611Z,20.36
2023-06-17T14:19:36.623Z,19.13
2023-06-17T14:22:07.007Z,19.68
2023-06-17T14:24:39.745Z,20.19
2023-06-17T14:27:40.847Z,21.04
2023-06-17T14:30:11.171Z,20.48
2023-06-17T14:32:39.033Z,21.29
2023-06-17T14:35:09.879Z,22.18
2023-06-17T14:37:37.641Z,21.87
2023-06-17T14:40:05.817Z,21.60
2023-06-17T14:42:34.000Z,21.27
2023-06-17T14:45:01.729Z,21.28
2023-06-17T14:47:29.442Z,21.94
2023-06-17T14:49:56.993Z,21.96
2023-06-17T14:52:27.121Z,22.02
2023-06-17T14:54:54.862Z,23.05
2023-06-17T14:57:22.817Z,22.86
2023-06-17T14:59:50.591Z,23.25
2023-06-17T15:02:36.595Z,23.25
2023-06-17T15:05:04.143Z,22.96
2023-06-17T15:07:32.913Z,23.41
2023-06-17T15:10:00.327Z,23.32
2023-06-17T15:12:27.774Z,23.26
2023-06-17T15:14:55.681Z,23.83
2023-06-17T15:17:23.219Z,23.31
2023-06-17T15:19:50.669Z,22.84
2023-06-17T15:22:18.123Z,22.14
2023-06-17T15:24:46.879Z,23.14
2023-06-17T15:27:14.366Z,22.66
2023-06-17T15:29:41.816Z,22.28
2023-06-17T15:32:09.705Z,22.64
2023-06-17T15:34:37.136Z,21.65
2023-06-17T15:37:05.243Z,21.83
2023-06-17T15:39:33.491Z,21.67
2023-06-17T15:42:02.291Z,21.98
2023-06-17T15:44:29.719Z,21.63
2023-06-17T15:46:57.175Z,22.14
2023-06-17T15:49:24.686Z,22.05
2023-06-17T15:51:52.156Z,21.66
2023-06-17T15:54:20.267Z,22.14
2023-06-17T15:56:47.887Z,22.13
2023-06-17T15:59:16.782Z,22.55
2023-06-17T16:01:44.519Z,21.97
2023-06-17T16:04:32.316Z,21.56
2023-06-17T16:07:00.176Z,21.26
2023-06-17T16:09:29.137Z,21.55
2023-06-17T16:11:56.564Z,21.78
2023-06-17T16:14:25.370Z,21.30
2023-06-17T16:16:52.961Z,21.45
2023-06-17T16:19:22.560Z,21.52
2023-06-17T16:21:50.492Z,22.24
2023-06-17T16:24:18.012Z,22.14
2023-06-17T16:26:45.499Z,21.85
2023-06-17T16:29:13.386Z,22.14
2023-06-17T16:31:42.225Z,22.36
2023-06-17T16:34:09.699Z,21.83
2023-06-17T16:36:37.160Z,21.26
2023-06-17T16:39:04.878Z,21.52
2023-06-17T16:41:32.345Z,21.80
2023-06-17T16:43:59.755Z,21.97
2023-06-17T16:46:27.241Z,21.55
2023-06-17T16:48:56.088Z,22.26
2023-06-17T16:51:23.547Z,21.74
2023-06-17T16:53:51.019Z,21.79
2023-06-17T16:56:18.609Z,21.88
2023-06-17T16:58:46.031Z,22.03
2023-06-17T17:01:13.505Z,22.50
2023-06-17T17:03:41.050Z,22.57
2023-06-17T17:06:10.023Z,22.49
2023-06-17T17:08:37.470Z,23.09
2023-06-17T17:11:05.172Z,22.74
2023-06-17T17:13:47.118Z,22.57
2023-06-17T17:16:15.834Z,22.60
2023-06-17T17:18:43.305Z,22.02
2023-06-17T17:21:12.105Z,21.83
2023-06-17T17:23:42.130Z,22.94
2023-06-17T17:26:12.970Z,22.30
2023-06-17T17:28:40.751Z,22.29
2023-06-17T17:31:08.239Z,22.43
2023-06-17T17:33:35.841Z,22.00
2023-06-17T17:36:03.444Z,22.61
2023-06-17T17:38:32.427Z,22.31
2023-06-17T17:40:59.881Z,22.49
2023-06-17T17:43:30.546Z,22.50
2023-06-17T17:45:58.547Z,22.49
2023-06-17T17:48:26.188Z,22.52
2023-06-17T17:50:53.622Z,22.66
2023-06-17T17:53:21.405Z,22.75
2023-06-17T17:55:50.402Z,22.14
2023-06-17T17:58:18.431Z,21.88
2023-06-17T18:00:46.501Z,22.55
2023-06-17T18:03:14.442Z,22.17
2023-06-17T18:05:41.948Z,22.18
2023-06-17T18:08:09.510Z,21.93
2023-06-17T18:10:36.970Z,21.35
2023-06-17T18:13:05.835Z,21.52
2023-06-17T18:15:33.276Z,21.65
2023-06-17T18:18:01.232Z,22.01
2023-06-17T18:20:28.744Z,21.85
2023-06-17T18:22:56.518Z,22.28
2023-06-17T18:25:23.958Z,21.91
2023-06-17T18:27:51.421Z,22.51
2023-06-17T18:30:20.544Z,22.77
2023-06-17T18:32:48.264Z,22.59
2023-06-17T18:35:15.957Z,22.38
2023-06-17T18:37:43.595Z,22.33
2023-06-17T18:40:12.171Z,22.33
2023-06-17T18:42:39.650Z,22.18
2023-06-17T18:45:09.775Z,22.06
2023-06-17T18:47:38.914Z,22.37
2023-06-17T18:50:07.830Z,22.55
2023-06-17T18:52:35.334Z,22.70
2023-06-17T18:55:02.780Z,22.54
2023-06-17T18:57:30.635Z,22.61
2023-06-17T18:59:58.129Z,22.45
2023-06-17T19:02:27.214Z,22.49
2023-06-17T19:04:56.861Z,22.08
2023-06-17T19:07:24.352Z,22.41
2023-06-17T19:09:51.951Z,22.41
2023-06-17T19:12:19.708Z,22.35
2023-06-17T19:14:47.231Z,22.30
2023-06-17T19:17:14.726Z,22.16
2023-06-17T19:19:42.263Z,22.18
2023-06-17T19:22:11.035Z,22.19
2023-06-17T19:24:38.652Z,22.16
2023-06-17T19:27:06.616Z,22.02
2023-06-17T19:29:34.055Z,21.87
2023-06-17T19:32:01.509Z,21.89
2023-06-17T19:34:28.918Z,21.87
2023-06-17T19:36:56.431Z,21.83
2023-06-17T19:39:25.187Z,21.95
2023-06-17T19:41:52.640Z,21.73
2023-06-17T19:44:20.094Z,21.89
2023-06-17T19:46:47.587Z,21.95
2023-06-17T19:49:15.098Z,21.45
2023-06-17T19:51:42.513Z,21.78
2023-06-17T19:54:10.042Z,21.68
2023-06-17T19:56:38.810Z,21.58
2023-06-17T19:59:06.322Z,21.68
2023-06-17T20:01:33.819Z,21.75
2023-06-17T20:04:01.291Z,21.91
2023-06-17T20:06:28.820Z,21.71
2023-06-17T20:08:56.265Z,21.52
2023-06-17T20:11:25.658Z,21.44
2023-06-17T20:13:54.518Z,21.33
2023-06-17T20:16:22.293Z,21.15
2023-06-17T20:18:49.801Z,21.20
2023-06-17T20:21:17.746Z,21.30
2023-06-17T20:23:45.231Z,21.30
2023-06-17T20:26:12.722Z,21.21
2023-06-17T20:28:40.228Z,21.16
2023-06-17T20:31:09.865Z,21.02
2023-06-17T20:33:38.828Z,21.03
2023-06-17T20:36:06.797Z,21.10
2023-06-17T20:38:34.266Z,20.98
2023-06-17T20:41:02.499Z,20.86
2023-06-17T20:43:30.038Z,20.85
2023-06-17T20:45:57.939Z,20.91
2023-06-17T20:48:30.069Z,20.89
2023-06-17T20:50:57.533Z,21.05
2023-06-17T20:53:25.003Z,20.97
2023-06-17T20:55:52.471Z,20.87
2023-06-17T20:58:19.906Z,20.85
2023-06-17T21:00:47.558Z,20.83
2023-06-17T21:03:15.495Z,20.78
2023-06-17T21:05:44.405Z,20.86
2023-06-17T21:08:11.854Z,20.87
2023-06-17T21:10:39.413Z,20.97
2023-06-17T21:13:07.167Z,20.99
2023-06-17T21:15:34.625Z,20.83
2023-06-17T21:18:02.198Z,20.61
2023-06-17T21:20:29.887Z,20.45
2023-06-17T21:23:00.774Z,20.36
2023-06-17T21:25:28.421Z,20.33
2023-06-17T21:27:56.487Z,20.51
2023-06-17T21:30:24.575Z,20.30
2023-06-17T21:32:52.265Z,20.48
2023-06-17T21:35:19.746Z,20.39
2023-06-17T21:37:47.355Z,20.60
2023-06-17T21:40:16.446Z,20.63
2023-06-17T21:42:43.875Z,20.53
2023-06-17T21:45:11.722Z,20.55
2023-06-17T21:47:39.186Z,20.62
2023-06-17T21:50:07.933Z,20.45
2023-06-17T21:52:35.411Z,20.39
2023-06-17T21:55:03.989Z,20.32
2023-06-17T21:57:32.962Z,20.24
2023-06-17T22:00:00.538Z,20.14
2023-06-17T22:02:28.328Z,20.14
2023-06-17T22:04:55.976Z,20.15
2023-06-17T22:07:23.423Z,20.24
2023-06-17T22:09:51.010Z,20.23
2023-06-17T22:12:18.575Z,20.24
2023-06-17T22:14:47.363Z,20.23
2023-06-17T22:17:14.810Z,20.16
2023-06-17T22:19:42.313Z,19.97
2023-06-17T22:22:09.770Z,19.92
2023-06-17T22:24:38.672Z,19.89
2023-06-17T22:27:07.575Z,19.89
2023-06-17T22:29:34.980Z,19.89
2023-06-17T22:32:03.955Z,19.82
2023-06-17T22:34:31.378Z,19.90
2023-06-17T22:36:58.857Z,19.93
2023-06-17T22:39:26.268Z,20.14
2023-06-17T22:41:53.955Z,20.14
2023-06-17T22:44:21.758Z,20.03
2023-06-17T22:46:49.364Z,19.94
2023-06-17T22:49:18.211Z,19.88
2023-06-17T22:51:45.685Z,19.79
2023-06-17T22:54:13.702Z,19.78
2023-06-17T22:56:41.974Z,19.87
2023-06-17T22:59:09.442Z,19.95
2023-06-17T23:01:36.908Z,19.97
2023-06-17T23:04:04.456Z,20.02
2023-06-17T23:06:33.265Z,19.99
2023-06-17T23:09:00.693Z,19.82
2023-06-17T23:11:28.129Z,19.69
2023-06-17T23:13:55.830Z,19.64
2023-06-17T23:16:23.297Z,19.51
2023-06-17T23:18:50.745Z,19.45
2023-06-17T23:21:19.773Z,19.40
2023-06-17T23:23:49.706Z,19.48
2023-06-17T23:26:17.643Z,19.44
2023-06-17T23:28:45.518Z,19.44
2023-06-17T23:31:14.981Z,19.24
2023-06-17T23:33:42.636Z,19.39
2023-06-17T23:36:10.393Z,19.38
2023-06-17T23:38:40.668Z,19.55
2023-06-17T23:41:09.559Z,19.49
2023-06-17T23:43:37.018Z,19.56
2023-06-17T23:46:04.735Z,19.63
2023-06-17T23:48:33.059Z,19.63
2023-06-17T23:51:00.651Z,19.66
2023-06-17T23:53:28.140Z,19.52
2023-06-17T23:55:56.006Z,19.40
2023-06-17T23:58:26.129Z,19.43
